sensor_id;sensor_type;location;lat;lon;timestamp;P1;durP1;ratioP1;P2;durP2;ratioP2
65641;SDS011;52340;-6.720;108.544;2024-01-15T00:00:30;27.25;;;19.35;;
65641;SDS011;52340;-6.720;108.544;2024-01-15T00:01:35;30.10;;;20.05;;
65641;SDS011;52340;-6.720;108.544;2024-01-15T00:02:41;31.92;;;21.20;;
65641;SDS011;52340;-6.720;108.544;2024-01-15T00:03:42;29.92;;;20.70;;
65641;SDS011;52340;-6.720;108.544;2024-01-15T00:04:44;30.30;;;20.40;;
65641;SDS011;52340;-6.720;108.544;2024-01-15T00:05:46;31.52;;;20.60;;
65641;SDS011;52340;-6.720;108.544;2024-01-15T00:06:48;32.08;;;20.65;;
65641;SDS011;52340;-6.720;108.544;2024-01-15T00:07:50;29.77;;;21.08;;
65641;SDS011;52340;-6.720;108.544;2024-01-15T00:08:52;32.95;;;23.17;;
65641;SDS011;52340;-6.720;108.544;2024-01-15T00:09:54;32.55;;;22.60;;
65641;SDS011;52340;-6.720;108.544;2024-01-15T00:10:56;34.13;;;23.75;;
65641;SDS011;52340;-6.720;108.544;2024-01-15T00:11:59;35.38;;;24.67;;
65641;SDS011;52340;-6.720;108.544;2024-01-15T00:13:01;33.50;;;23.77;;
65641;SDS011;52340;-6.720;108.544;2024-01-15T00:14:06;35.97;;;24.15;;
65641;SDS011;52340;-6.720;108.544;2024-01-15T00:15:08;34.92;;;23.92;;
65641;SDS011;52340;-6.720;108.544;2024-01-15T00:16:10;31.90;;;23.23;;
65641;SDS011;52340;-6.720;108.544;2024-01-15T00:17:12;34.08;;;24.02;;
65641;SDS011;52340;-6.720;108.544;2024-01-15T00:18:14;38.92;;;25.80;;
65641;SDS011;52340;-6.720;108.544;2024-01-15T00:19:16;34.20;;;24.67;;
65641;SDS011;52340;-6.720;108.544;2024-01-15T00:20:18;35.70;;;25.70;;
65641;SDS011;52340;-6.720;108.544;2024-01-15T00:21:19;37.85;;;26.98;;
65641;SDS011;52340;-6.720;108.544;2024-01-15T00:22:23;49.72;;;30.05;;
65641;SDS011;52340;-6.720;108.544;2024-01-15T00:23:25;44.08;;;29.25;;
65641;SDS011;52340;-6.720;108.544;2024-01-15T00:24:27;46.53;;;30.95;;
65641;SDS011;52340;-6.720;108.544;2024-01-15T00:25:29;47.67;;;33.08;;
65641;SDS011;52340;-6.720;108.544;2024-01-15T00:26:31;44.38;;;30.63;;
65641;SDS011;52340;-6.720;108.544;2024-01-15T00:27:33;49.08;;;31.40;;
65641;SDS011;52340;-6.720;108.544;2024-01-15T00:28:36;46.75;;;32.30;;
65641;SDS011;52340;-6.720;108.544;2024-01-15T00:29:39;47.20;;;33.63;;
65641;SDS011;52340;-6.720;108.544;2024-01-15T00:30:41;50.85;;;33.15;;
65641;SDS011;52340;-6.720;108.544;2024-01-15T00:31:43;53.05;;;36.22;;
65641;SDS011;52340;-6.720;108.544;2024-01-15T00:32:45;54.38;;;37.38;;
65641;SDS011;52340;-6.720;108.544;2024-01-15T00:33:47;60.47;;;39.70;;
65641;SDS011;52340;-6.720;108.544;2024-01-15T00:34:49;57.53;;;38.33;;
65641;SDS011;52340;-6.720;108.544;2024-01-15T00:35:51;57.65;;;39.63;;
65641;SDS011;52340;-6.720;108.544;2024-01-15T00:36:52;59.85;;;39.40;;
65641;SDS011;52340;-6.720;108.544;2024-01-15T00:37:54;62.45;;;39.25;;
65641;SDS011;52340;-6.720;108.544;2024-01-15T00:38:56;58.85;;;40.65;;
65641;SDS011;52340;-6.720;108.544;2024-01-15T00:40:01;54.40;;;38.10;;
65641;SDS011;52340;-6.720;108.544;2024-01-15T00:41:03;56.60;;;41.08;;
65641;SDS011;52340;-6.720;108.544;2024-01-15T00:42:05;61.30;;;39.67;;
65641;SDS011;52340;-6.720;108.544;2024-01-15T00:43:07;62.03;;;40.20;;
65641;SDS011;52340;-6.720;108.544;2024-01-15T00:44:09;62.97;;;41.70;;
65641;SDS011;52340;-6.720;108.544;2024-01-15T00:45:13;57.10;;;40.97;;
65641;SDS011;52340;-6.720;108.544;2024-01-15T00:46:15;62.63;;;40.92;;
65641;SDS011;52340;-6.720;108.544;2024-01-15T00:47:18;58.45;;;41.83;;
65641;SDS011;52340;-6.720;108.544;2024-01-15T00:48:19;59.47;;;39.53;;
65641;SDS011;52340;-6.720;108.544;2024-01-15T00:49:24;57.35;;;39.72;;
65641;SDS011;52340;-6.720;108.544;2024-01-15T00:50:25;65.47;;;43.33;;
65641;SDS011;52340;-6.720;108.544;2024-01-15T00:51:27;61.75;;;43.17;;
65641;SDS011;52340;-6.720;108.544;2024-01-15T00:52:29;56.70;;;39.63;;
65641;SDS011;52340;-6.720;108.544;2024-01-15T00:53:33;59.83;;;40.67;;
65641;SDS011;52340;-6.720;108.544;2024-01-15T00:54:35;64.25;;;41.05;;
65641;SDS011;52340;-6.720;108.544;2024-01-15T00:55:37;61.83;;;39.28;;
65641;SDS011;52340;-6.720;108.544;2024-01-15T00:56:39;60.17;;;41.22;;
65641;SDS011;52340;-6.720;108.544;2024-01-15T00:57:41;61.13;;;40.00;;
65641;SDS011;52340;-6.720;108.544;2024-01-15T00:58:43;63.35;;;40.58;;
65641;SDS011;52340;-6.720;108.544;2024-01-15T00:59:44;64.80;;;42.95;;
65641;SDS011;52340;-6.720;108.544;2024-01-15T01:00:48;69.80;;;44.00;;
65641;SDS011;52340;-6.720;108.544;2024-01-15T01:01:50;70.78;;;45.05;;
65641;SDS011;52340;-6.720;108.544;2024-01-15T01:02:52;71.65;;;45.95;;
65641;SDS011;52340;-6.720;108.544;2024-01-15T01:03:53;76.45;;;46.90;;
65641;SDS011;52340;-6.720;108.544;2024-01-15T01:04:55;72.60;;;47.90;;
65641;SDS011;52340;-6.720;108.544;2024-01-15T01:05:57;72.30;;;48.08;;
65641;SDS011;52340;-6.720;108.544;2024-01-15T01:06:59;77.18;;;47.65;;
65641;SDS011;52340;-6.720;108.544;2024-01-15T01:08:01;73.43;;;46.58;;
65641;SDS011;52340;-6.720;108.544;2024-01-15T01:09:02;73.05;;;45.65;;
65641;SDS011;52340;-6.720;108.544;2024-01-15T01:10:05;77.05;;;45.70;;
65641;SDS011;52340;-6.720;108.544;2024-01-15T01:11:07;74.18;;;45.72;;
65641;SDS011;52340;-6.720;108.544;2024-01-15T01:12:12;64.50;;;42.95;;
65641;SDS011;52340;-6.720;108.544;2024-01-15T01:13:14;69.57;;;43.88;;
65641;SDS011;52340;-6.720;108.544;2024-01-15T01:14:15;70.57;;;45.22;;
65641;SDS011;52340;-6.720;108.544;2024-01-15T01:15:17;68.45;;;43.33;;
65641;SDS011;52340;-6.720;108.544;2024-01-15T01:16:24;75.88;;;43.05;;
65641;SDS011;52340;-6.720;108.544;2024-01-15T01:17:25;63.63;;;41.33;;
65641;SDS011;52340;-6.720;108.544;2024-01-15T01:18:27;60.63;;;40.17;;
65641;SDS011;52340;-6.720;108.544;2024-01-15T01:19:32;63.50;;;40.58;;
65641;SDS011;52340;-6.720;108.544;2024-01-15T01:20:34;67.65;;;40.33;;
65641;SDS011;52340;-6.720;108.544;2024-01-15T01:21:36;64.10;;;40.03;;
65641;SDS011;52340;-6.720;108.544;2024-01-15T01:22:39;63.28;;;39.05;;
65641;SDS011;52340;-6.720;108.544;2024-01-15T01:23:44;64.75;;;38.38;;
65641;SDS011;52340;-6.720;108.544;2024-01-15T01:24:48;63.35;;;37.85;;
65641;SDS011;52340;-6.720;108.544;2024-01-15T01:25:52;52.70;;;34.55;;
65641;SDS011;52340;-6.720;108.544;2024-01-15T01:26:54;56.03;;;35.42;;
65641;SDS011;52340;-6.720;108.544;2024-01-15T01:27:56;54.25;;;35.38;;
65641;SDS011;52340;-6.720;108.544;2024-01-15T01:29:07;51.35;;;33.92;;
65641;SDS011;52340;-6.720;108.544;2024-01-15T01:30:09;56.05;;;36.65;;
65641;SDS011;52340;-6.720;108.544;2024-01-15T01:31:11;55.78;;;35.80;;
65641;SDS011;52340;-6.720;108.544;2024-01-15T01:32:14;53.75;;;35.97;;
65641;SDS011;52340;-6.720;108.544;2024-01-15T01:33:16;48.42;;;33.58;;
65641;SDS011;52340;-6.720;108.544;2024-01-15T01:34:18;58.55;;;36.42;;
65641;SDS011;52340;-6.720;108.544;2024-01-15T01:35:20;58.63;;;36.17;;
65641;SDS011;52340;-6.720;108.544;2024-01-15T01:36:21;57.33;;;37.13;;
65641;SDS011;52340;-6.720;108.544;2024-01-15T01:37:23;51.65;;;32.58;;
65641;SDS011;52340;-6.720;108.544;2024-01-15T01:38:25;58.33;;;35.63;;
65641;SDS011;52340;-6.720;108.544;2024-01-15T01:39:27;50.10;;;34.63;;
65641;SDS011;52340;-6.720;108.544;2024-01-15T01:40:29;55.33;;;36.92;;
65641;SDS011;52340;-6.720;108.544;2024-01-15T01:41:31;61.45;;;38.33;;
65641;SDS011;52340;-6.720;108.544;2024-01-15T01:42:32;53.92;;;35.45;;
65641;SDS011;52340;-6.720;108.544;2024-01-15T01:43:34;54.92;;;35.13;;
65641;SDS011;52340;-6.720;108.544;2024-01-15T01:44:36;55.55;;;36.65;;
65641;SDS011;52340;-6.720;108.544;2024-01-15T01:45:38;53.70;;;37.50;;
65641;SDS011;52340;-6.720;108.544;2024-01-15T01:46:39;58.58;;;36.50;;
65641;SDS011;52340;-6.720;108.544;2024-01-15T01:47:45;61.85;;;37.88;;
65641;SDS011;52340;-6.720;108.544;2024-01-15T01:48:47;61.10;;;39.28;;
65641;SDS011;52340;-6.720;108.544;2024-01-15T01:49:49;56.67;;;38.25;;
65641;SDS011;52340;-6.720;108.544;2024-01-15T01:50:50;59.90;;;38.92;;
65641;SDS011;52340;-6.720;108.544;2024-01-15T01:51:54;60.92;;;39.58;;
65641;SDS011;52340;-6.720;108.544;2024-01-15T01:52:57;62.03;;;38.22;;
65641;SDS011;52340;-6.720;108.544;2024-01-15T01:53:59;59.92;;;36.58;;
65641;SDS011;52340;-6.720;108.544;2024-01-15T01:55:02;53.65;;;34.45;;
65641;SDS011;52340;-6.720;108.544;2024-01-15T01:56:05;57.88;;;34.67;;
65641;SDS011;52340;-6.720;108.544;2024-01-15T01:57:07;51.13;;;33.40;;
65641;SDS011;52340;-6.720;108.544;2024-01-15T01:58:09;48.65;;;32.90;;
65641;SDS011;52340;-6.720;108.544;2024-01-15T01:59:10;53.47;;;31.30;;
65641;SDS011;52340;-6.720;108.544;2024-01-15T02:00:13;45.78;;;30.15;;
65641;SDS011;52340;-6.720;108.544;2024-01-15T02:01:15;44.97;;;29.00;;
65641;SDS011;52340;-6.720;108.544;2024-01-15T02:02:20;47.88;;;30.52;;
65641;SDS011;52340;-6.720;108.544;2024-01-15T02:03:24;43.38;;;28.77;;
65641;SDS011;52340;-6.720;108.544;2024-01-15T02:04:25;48.92;;;29.88;;
65641;SDS011;52340;-6.720;108.544;2024-01-15T02:05:27;45.00;;;29.15;;
65641;SDS011;52340;-6.720;108.544;2024-01-15T02:06:29;42.53;;;27.60;;
65641;SDS011;52340;-6.720;108.544;2024-01-15T02:07:31;42.80;;;27.33;;
65641;SDS011;52340;-6.720;108.544;2024-01-15T02:08:34;48.53;;;27.77;;
65641;SDS011;52340;-6.720;108.544;2024-01-15T02:09:36;43.92;;;28.75;;
65641;SDS011;52340;-6.720;108.544;2024-01-15T02:10:38;45.90;;;27.05;;
65641;SDS011;52340;-6.720;108.544;2024-01-15T02:11:40;43.60;;;27.20;;
65641;SDS011;52340;-6.720;108.544;2024-01-15T02:12:42;41.55;;;27.17;;
65641;SDS011;52340;-6.720;108.544;2024-01-15T02:13:44;42.22;;;26.88;;
65641;SDS011;52340;-6.720;108.544;2024-01-15T02:14:46;40.75;;;26.83;;
65641;SDS011;52340;-6.720;108.544;2024-01-15T02:15:47;42.15;;;27.20;;
65641;SDS011;52340;-6.720;108.544;2024-01-15T02:16:49;42.10;;;27.40;;
65641;SDS011;52340;-6.720;108.544;2024-01-15T02:17:58;38.80;;;26.05;;
65641;SDS011;52340;-6.720;108.544;2024-01-15T02:19:02;45.70;;;29.05;;
65641;SDS011;52340;-6.720;108.544;2024-01-15T02:20:04;42.85;;;27.77;;
65641;SDS011;52340;-6.720;108.544;2024-01-15T02:21:06;42.75;;;26.38;;
65641;SDS011;52340;-6.720;108.544;2024-01-15T02:22:08;49.35;;;27.77;;
65641;SDS011;52340;-6.720;108.544;2024-01-15T02:23:12;39.95;;;26.00;;
65641;SDS011;52340;-6.720;108.544;2024-01-15T02:24:14;39.67;;;25.90;;
65641;SDS011;52340;-6.720;108.544;2024-01-15T02:25:16;53.42;;;33.65;;
65641;SDS011;52340;-6.720;108.544;2024-01-15T02:26:17;63.53;;;36.28;;
65641;SDS011;52340;-6.720;108.544;2024-01-15T02:27:19;62.70;;;36.63;;
65641;SDS011;52340;-6.720;108.544;2024-01-15T02:28:21;56.92;;;34.97;;
65641;SDS011;52340;-6.720;108.544;2024-01-15T02:29:23;51.60;;;30.00;;
65641;SDS011;52340;-6.720;108.544;2024-01-15T02:30:25;59.50;;;34.38;;
65641;SDS011;52340;-6.720;108.544;2024-01-15T02:31:28;54.47;;;31.40;;
65641;SDS011;52340;-6.720;108.544;2024-01-15T02:32:29;46.53;;;29.52;;
65641;SDS011;52340;-6.720;108.544;2024-01-15T02:33:31;50.08;;;29.83;;
65641;SDS011;52340;-6.720;108.544;2024-01-15T02:34:33;55.63;;;32.45;;
65641;SDS011;52340;-6.720;108.544;2024-01-15T02:35:35;49.00;;;29.55;;
65641;SDS011;52340;-6.720;108.544;2024-01-15T02:36:37;47.58;;;28.42;;
65641;SDS011;52340;-6.720;108.544;2024-01-15T02:37:38;53.92;;;30.55;;
65641;SDS011;52340;-6.720;108.544;2024-01-15T02:38:42;49.83;;;26.75;;
65641;SDS011;52340;-6.720;108.544;2024-01-15T02:39:44;43.63;;;28.02;;
65641;SDS011;52340;-6.720;108.544;2024-01-15T02:40:45;57.80;;;29.75;;
65641;SDS011;52340;-6.720;108.544;2024-01-15T02:41:47;51.13;;;29.13;;
65641;SDS011;52340;-6.720;108.544;2024-01-15T02:42:52;50.95;;;29.77;;
65641;SDS011;52340;-6.720;108.544;2024-01-15T02:43:53;62.25;;;30.60;;
65641;SDS011;52340;-6.720;108.544;2024-01-15T02:44:55;56.03;;;28.92;;
65641;SDS011;52340;-6.720;108.544;2024-01-15T02:45:57;49.58;;;28.65;;
65641;SDS011;52340;-6.720;108.544;2024-01-15T02:46:59;52.38;;;27.83;;
65641;SDS011;52340;-6.720;108.544;2024-01-15T02:48:03;53.30;;;28.50;;
65641;SDS011;52340;-6.720;108.544;2024-01-15T02:49:05;50.58;;;27.73;;
65641;SDS011;52340;-6.720;108.544;2024-01-15T02:50:07;46.20;;;25.88;;
65641;SDS011;52340;-6.720;108.544;2024-01-15T02:51:09;52.42;;;28.05;;
65641;SDS011;52340;-6.720;108.544;2024-01-15T02:52:11;52.15;;;28.33;;
65641;SDS011;52340;-6.720;108.544;2024-01-15T02:53:13;56.95;;;27.77;;
65641;SDS011;52340;-6.720;108.544;2024-01-15T02:54:16;47.67;;;26.80;;
65641;SDS011;52340;-6.720;108.544;2024-01-15T02:55:18;51.97;;;27.63;;
65641;SDS011;52340;-6.720;108.544;2024-01-15T02:56:19;45.30;;;26.60;;
65641;SDS011;52340;-6.720;108.544;2024-01-15T02:57:21;45.20;;;26.27;;
65641;SDS011;52340;-6.720;108.544;2024-01-15T02:58:23;41.90;;;24.88;;
65641;SDS011;52340;-6.720;108.544;2024-01-15T02:59:25;45.63;;;25.10;;
65641;SDS011;52340;-6.720;108.544;2024-01-15T03:00:27;40.63;;;25.55;;
65641;SDS011;52340;-6.720;108.544;2024-01-15T03:01:29;41.15;;;25.08;;
65641;SDS011;52340;-6.720;108.544;2024-01-15T03:02:30;40.90;;;24.92;;
65641;SDS011;52340;-6.720;108.544;2024-01-15T03:03:32;41.25;;;23.77;;
65641;SDS011;52340;-6.720;108.544;2024-01-15T03:04:34;43.85;;;24.67;;
65641;SDS011;52340;-6.720;108.544;2024-01-15T03:05:36;42.25;;;25.20;;
65641;SDS011;52340;-6.720;108.544;2024-01-15T03:06:38;44.90;;;24.15;;
65641;SDS011;52340;-6.720;108.544;2024-01-15T03:07:39;45.15;;;24.98;;
65641;SDS011;52340;-6.720;108.544;2024-01-15T03:08:41;41.72;;;23.67;;
65641;SDS011;52340;-6.720;108.544;2024-01-15T03:09:45;40.97;;;23.73;;
65641;SDS011;52340;-6.720;108.544;2024-01-15T03:10:47;36.70;;;23.13;;
65641;SDS011;52340;-6.720;108.544;2024-01-15T03:11:48;42.15;;;23.42;;
65641;SDS011;52340;-6.720;108.544;2024-01-15T03:12:52;34.35;;;22.90;;
65641;SDS011;52340;-6.720;108.544;2024-01-15T03:13:54;37.67;;;23.67;;
65641;SDS011;52340;-6.720;108.544;2024-01-15T03:14:56;34.20;;;22.13;;
65641;SDS011;52340;-6.720;108.544;2024-01-15T03:16:03;36.28;;;21.80;;
65641;SDS011;52340;-6.720;108.544;2024-01-15T03:17:10;37.35;;;22.27;;
65641;SDS011;52340;-6.720;108.544;2024-01-15T03:18:21;34.50;;;22.02;;
65641;SDS011;52340;-6.720;108.544;2024-01-15T03:19:23;35.97;;;20.92;;
65641;SDS011;52340;-6.720;108.544;2024-01-15T03:20:24;31.80;;;20.58;;
65641;SDS011;52340;-6.720;108.544;2024-01-15T03:21:26;32.25;;;20.75;;
65641;SDS011;52340;-6.720;108.544;2024-01-15T03:22:28;35.17;;;21.30;;
65641;SDS011;52340;-6.720;108.544;2024-01-15T03:23:30;32.65;;;20.75;;
65641;SDS011;52340;-6.720;108.544;2024-01-15T03:24:31;32.92;;;21.17;;
65641;SDS011;52340;-6.720;108.544;2024-01-15T03:25:35;33.22;;;20.85;;
65641;SDS011;52340;-6.720;108.544;2024-01-15T03:26:37;34.80;;;20.33;;
65641;SDS011;52340;-6.720;108.544;2024-01-15T03:27:38;34.70;;;20.13;;
65641;SDS011;52340;-6.720;108.544;2024-01-15T03:28:40;32.35;;;21.77;;
65641;SDS011;52340;-6.720;108.544;2024-01-15T03:29:42;36.88;;;22.83;;
65641;SDS011;52340;-6.720;108.544;2024-01-15T03:30:44;38.00;;;23.48;;
65641;SDS011;52340;-6.720;108.544;2024-01-15T03:31:46;36.97;;;24.08;;
65641;SDS011;52340;-6.720;108.544;2024-01-15T03:32:47;36.15;;;23.40;;
65641;SDS011;52340;-6.720;108.544;2024-01-15T03:33:49;36.55;;;25.02;;
65641;SDS011;52340;-6.720;108.544;2024-01-15T03:34:51;34.75;;;24.70;;
65641;SDS011;52340;-6.720;108.544;2024-01-15T03:35:53;35.50;;;25.23;;
65641;SDS011;52340;-6.720;108.544;2024-01-15T03:36:55;41.63;;;26.25;;
65641;SDS011;52340;-6.720;108.544;2024-01-15T03:37:56;39.60;;;25.60;;
65641;SDS011;52340;-6.720;108.544;2024-01-15T03:38:58;38.60;;;25.48;;
65641;SDS011;52340;-6.720;108.544;2024-01-15T03:40:03;35.72;;;25.33;;
65641;SDS011;52340;-6.720;108.544;2024-01-15T03:41:07;37.90;;;25.67;;
65641;SDS011;52340;-6.720;108.544;2024-01-15T03:42:09;39.42;;;27.00;;
65641;SDS011;52340;-6.720;108.544;2024-01-15T03:43:11;38.67;;;26.73;;
65641;SDS011;52340;-6.720;108.544;2024-01-15T03:44:12;44.58;;;28.27;;
65641;SDS011;52340;-6.720;108.544;2024-01-15T03:45:14;38.90;;;27.13;;
65641;SDS011;52340;-6.720;108.544;2024-01-15T03:46:16;41.33;;;27.40;;
65641;SDS011;52340;-6.720;108.544;2024-01-15T03:47:18;39.60;;;26.10;;
65641;SDS011;52340;-6.720;108.544;2024-01-15T03:48:20;37.75;;;24.75;;
65641;SDS011;52340;-6.720;108.544;2024-01-15T03:49:21;39.10;;;26.08;;
65641;SDS011;52340;-6.720;108.544;2024-01-15T03:50:23;38.60;;;27.13;;
65641;SDS011;52340;-6.720;108.544;2024-01-15T03:51:25;40.20;;;27.10;;
65641;SDS011;52340;-6.720;108.544;2024-01-15T03:52:27;41.97;;;27.25;;
65641;SDS011;52340;-6.720;108.544;2024-01-15T03:53:29;38.38;;;26.20;;
65641;SDS011;52340;-6.720;108.544;2024-01-15T03:54:30;47.53;;;28.10;;
65641;SDS011;52340;-6.720;108.544;2024-01-15T03:55:32;47.72;;;27.65;;
65641;SDS011;52340;-6.720;108.544;2024-01-15T03:56:36;53.42;;;29.95;;
65641;SDS011;52340;-6.720;108.544;2024-01-15T03:57:38;47.03;;;29.45;;
65641;SDS011;52340;-6.720;108.544;2024-01-15T03:58:39;46.92;;;29.77;;
65641;SDS011;52340;-6.720;108.544;2024-01-15T03:59:41;59.17;;;36.00;;
65641;SDS011;52340;-6.720;108.544;2024-01-15T04:00:43;90.38;;;59.58;;
65641;SDS011;52340;-6.720;108.544;2024-01-15T04:01:48;119.68;;;76.45;;
65641;SDS011;52340;-6.720;108.544;2024-01-15T04:02:50;127.03;;;75.80;;
65641;SDS011;52340;-6.720;108.544;2024-01-15T04:03:54;98.45;;;63.45;;
65641;SDS011;52340;-6.720;108.544;2024-01-15T04:04:56;125.45;;;70.97;;
65641;SDS011;52340;-6.720;108.544;2024-01-15T04:05:58;150.38;;;79.10;;
65641;SDS011;52340;-6.720;108.544;2024-01-15T04:07:00;355.98;;;157.45;;
65641;SDS011;52340;-6.720;108.544;2024-01-15T04:08:01;718.75;;;372.02;;
65641;SDS011;52340;-6.720;108.544;2024-01-15T04:09:03;515.65;;;255.18;;
65641;SDS011;52340;-6.720;108.544;2024-01-15T04:10:05;461.77;;;222.80;;
65641;SDS011;52340;-6.720;108.544;2024-01-15T04:11:07;612.28;;;300.60;;
65641;SDS011;52340;-6.720;108.544;2024-01-15T04:12:11;645.90;;;320.60;;
65641;SDS011;52340;-6.720;108.544;2024-01-15T04:13:13;507.35;;;251.77;;
65641;SDS011;52340;-6.720;108.544;2024-01-15T04:14:14;556.65;;;281.23;;
65641;SDS011;52340;-6.720;108.544;2024-01-15T04:15:16;498.67;;;251.30;;
65641;SDS011;52340;-6.720;108.544;2024-01-15T04:16:18;458.02;;;228.75;;
65641;SDS011;52340;-6.720;108.544;2024-01-15T04:17:20;474.30;;;234.50;;
65641;SDS011;52340;-6.720;108.544;2024-01-15T04:18:21;498.67;;;249.52;;
65641;SDS011;52340;-6.720;108.544;2024-01-15T04:19:23;385.30;;;181.90;;
65641;SDS011;52340;-6.720;108.544;2024-01-15T04:20:25;402.83;;;191.07;;
65641;SDS011;52340;-6.720;108.544;2024-01-15T04:21:27;363.92;;;166.25;;
65641;SDS011;52340;-6.720;108.544;2024-01-15T04:22:28;347.17;;;156.88;;
65641;SDS011;52340;-6.720;108.544;2024-01-15T04:23:30;158.60;;;77.20;;
65641;SDS011;52340;-6.720;108.544;2024-01-15T04:24:32;171.13;;;80.55;;
65641;SDS011;52340;-6.720;108.544;2024-01-15T04:25:37;238.35;;;109.88;;
65641;SDS011;52340;-6.720;108.544;2024-01-15T04:26:43;191.05;;;91.53;;
65641;SDS011;52340;-6.720;108.544;2024-01-15T04:27:47;169.40;;;81.80;;
65641;SDS011;52340;-6.720;108.544;2024-01-15T04:28:48;286.55;;;130.45;;
65641;SDS011;52340;-6.720;108.544;2024-01-15T04:29:50;84.05;;;44.80;;
65641;SDS011;52340;-6.720;108.544;2024-01-15T04:30:52;56.83;;;32.85;;
65641;SDS011;52340;-6.720;108.544;2024-01-15T04:31:54;63.55;;;35.00;;
65641;SDS011;52340;-6.720;108.544;2024-01-15T04:32:55;47.70;;;27.75;;
65641;SDS011;52340;-6.720;108.544;2024-01-15T04:33:57;39.20;;;24.25;;
65641;SDS011;52340;-6.720;108.544;2024-01-15T04:35:00;41.30;;;24.88;;
65641;SDS011;52340;-6.720;108.544;2024-01-15T04:36:03;36.42;;;22.83;;
65641;SDS011;52340;-6.720;108.544;2024-01-15T04:37:06;37.33;;;23.23;;
65641;SDS011;52340;-6.720;108.544;2024-01-15T04:38:08;33.30;;;21.35;;
65641;SDS011;52340;-6.720;108.544;2024-01-15T04:39:10;35.35;;;21.23;;
65641;SDS011;52340;-6.720;108.544;2024-01-15T04:40:11;31.30;;;21.05;;
65641;SDS011;52340;-6.720;108.544;2024-01-15T04:41:14;32.05;;;20.50;;
65641;SDS011;52340;-6.720;108.544;2024-01-15T04:42:16;35.63;;;21.85;;
65641;SDS011;52340;-6.720;108.544;2024-01-15T04:43:20;35.03;;;21.65;;
65641;SDS011;52340;-6.720;108.544;2024-01-15T04:44:22;31.45;;;19.85;;
65641;SDS011;52340;-6.720;108.544;2024-01-15T04:45:24;30.02;;;19.55;;
65641;SDS011;52340;-6.720;108.544;2024-01-15T04:46:26;46.90;;;27.95;;
65641;SDS011;52340;-6.720;108.544;2024-01-15T04:47:32;68.60;;;38.08;;
65641;SDS011;52340;-6.720;108.544;2024-01-15T04:48:34;35.30;;;21.27;;
65641;SDS011;52340;-6.720;108.544;2024-01-15T04:49:36;37.90;;;22.08;;
65641;SDS011;52340;-6.720;108.544;2024-01-15T04:50:38;31.05;;;19.50;;
65641;SDS011;52340;-6.720;108.544;2024-01-15T04:51:39;27.67;;;17.95;;
65641;SDS011;52340;-6.720;108.544;2024-01-15T04:52:49;29.30;;;17.05;;
65641;SDS011;52340;-6.720;108.544;2024-01-15T04:54:53;41.58;;;23.73;;
65641;SDS011;52340;-6.720;108.544;2024-01-15T04:55:55;41.72;;;23.85;;
65641;SDS011;52340;-6.720;108.544;2024-01-15T04:56:57;41.22;;;24.00;;
65641;SDS011;52340;-6.720;108.544;2024-01-15T04:58:01;43.00;;;24.95;;
65641;SDS011;52340;-6.720;108.544;2024-01-15T04:59:16;41.67;;;24.45;;
65641;SDS011;52340;-6.720;108.544;2024-01-15T05:00:18;31.80;;;19.25;;
65641;SDS011;52340;-6.720;108.544;2024-01-15T05:01:20;31.67;;;18.95;;
65641;SDS011;52340;-6.720;108.544;2024-01-15T05:02:25;32.33;;;19.25;;
65641;SDS011;52340;-6.720;108.544;2024-01-15T05:03:27;38.03;;;21.33;;
65641;SDS011;52340;-6.720;108.544;2024-01-15T05:04:28;30.75;;;18.38;;
65641;SDS011;52340;-6.720;108.544;2024-01-15T05:05:30;28.23;;;17.55;;
65641;SDS011;52340;-6.720;108.544;2024-01-15T05:06:32;29.25;;;18.05;;
65641;SDS011;52340;-6.720;108.544;2024-01-15T05:07:34;34.85;;;20.80;;
65641;SDS011;52340;-6.720;108.544;2024-01-15T05:08:35;30.25;;;18.40;;
65641;SDS011;52340;-6.720;108.544;2024-01-15T05:09:37;25.50;;;15.90;;
65641;SDS011;52340;-6.720;108.544;2024-01-15T05:10:39;24.42;;;14.90;;
65641;SDS011;52340;-6.720;108.544;2024-01-15T05:11:41;25.80;;;15.27;;
65641;SDS011;52340;-6.720;108.544;2024-01-15T05:12:42;24.15;;;14.45;;
65641;SDS011;52340;-6.720;108.544;2024-01-15T05:13:44;24.05;;;14.50;;
65641;SDS011;52340;-6.720;108.544;2024-01-15T05:14:48;23.50;;;14.02;;
65641;SDS011;52340;-6.720;108.544;2024-01-15T05:15:50;45.60;;;24.67;;
65641;SDS011;52340;-6.720;108.544;2024-01-15T05:16:52;32.78;;;18.27;;
65641;SDS011;52340;-6.720;108.544;2024-01-15T05:17:53;28.48;;;17.40;;
65641;SDS011;52340;-6.720;108.544;2024-01-15T05:18:55;29.98;;;17.30;;
65641;SDS011;52340;-6.720;108.544;2024-01-15T05:19:57;32.28;;;19.40;;
65641;SDS011;52340;-6.720;108.544;2024-01-15T05:20:58;31.58;;;17.70;;
65641;SDS011;52340;-6.720;108.544;2024-01-15T05:22:00;24.23;;;14.57;;
65641;SDS011;52340;-6.720;108.544;2024-01-15T05:23:02;29.63;;;15.80;;
65641;SDS011;52340;-6.720;108.544;2024-01-15T05:24:04;20.98;;;12.10;;
65641;SDS011;52340;-6.720;108.544;2024-01-15T05:25:06;20.60;;;11.68;;
65641;SDS011;52340;-6.720;108.544;2024-01-15T05:26:08;25.40;;;11.52;;
65641;SDS011;52340;-6.720;108.544;2024-01-15T05:27:10;25.95;;;15.18;;
65641;SDS011;52340;-6.720;108.544;2024-01-15T05:28:11;22.92;;;13.75;;
65641;SDS011;52340;-6.720;108.544;2024-01-15T05:29:13;19.25;;;11.85;;
65641;SDS011;52340;-6.720;108.544;2024-01-15T05:30:19;20.40;;;10.73;;
65641;SDS011;52340;-6.720;108.544;2024-01-15T05:31:21;21.58;;;12.05;;
65641;SDS011;52340;-6.720;108.544;2024-01-15T05:32:23;17.48;;;10.38;;
65641;SDS011;52340;-6.720;108.544;2024-01-15T05:33:25;18.75;;;10.80;;
65641;SDS011;52340;-6.720;108.544;2024-01-15T05:34:26;20.63;;;11.00;;
65641;SDS011;52340;-6.720;108.544;2024-01-15T05:35:28;19.30;;;10.30;;
65641;SDS011;52340;-6.720;108.544;2024-01-15T05:36:30;19.50;;;11.00;;
65641;SDS011;52340;-6.720;108.544;2024-01-15T05:37:32;22.00;;;12.15;;
65641;SDS011;52340;-6.720;108.544;2024-01-15T05:38:33;22.35;;;11.65;;
65641;SDS011;52340;-6.720;108.544;2024-01-15T05:39:35;19.42;;;10.98;;
65641;SDS011;52340;-6.720;108.544;2024-01-15T05:40:37;17.77;;;10.57;;
65641;SDS011;52340;-6.720;108.544;2024-01-15T05:41:39;17.02;;;10.27;;
65641;SDS011;52340;-6.720;108.544;2024-01-15T05:42:41;18.58;;;10.80;;
65641;SDS011;52340;-6.720;108.544;2024-01-15T05:43:42;17.10;;;10.32;;
65641;SDS011;52340;-6.720;108.544;2024-01-15T05:44:44;18.52;;;10.13;;
65641;SDS011;52340;-6.720;108.544;2024-01-15T05:45:48;20.80;;;10.68;;
65641;SDS011;52340;-6.720;108.544;2024-01-15T05:46:49;19.10;;;10.02;;
65641;SDS011;52340;-6.720;108.544;2024-01-15T05:47:51;17.38;;;9.80;;
65641;SDS011;52340;-6.720;108.544;2024-01-15T05:48:53;18.88;;;10.70;;
65641;SDS011;52340;-6.720;108.544;2024-01-15T05:49:55;16.83;;;9.65;;
65641;SDS011;52340;-6.720;108.544;2024-01-15T05:50:57;18.02;;;10.10;;
65641;SDS011;52340;-6.720;108.544;2024-01-15T05:51:59;18.73;;;9.73;;
65641;SDS011;52340;-6.720;108.544;2024-01-15T05:53:01;14.25;;;9.07;;
65641;SDS011;52340;-6.720;108.544;2024-01-15T05:54:03;17.55;;;9.57;;
65641;SDS011;52340;-6.720;108.544;2024-01-15T05:55:05;17.58;;;9.77;;